sensor_id;sensor_type;location;lat;lon;timestamp;temperature;humidity
1055;DHT22;516;51.482;7.120;2022-07-23T00:00:10;16.40;99.90
1055;DHT22;516;51.482;7.120;2022-07-23T00:02:35;16.40;99.90
1055;DHT22;516;51.482;7.120;2022-07-23T00:05:01;16.40;99.90
1055;DHT22;516;51.482;7.120;2022-07-23T00:07:27;16.40;99.90
1055;DHT22;516;51.482;7.120;2022-07-23T00:09:53;16.40;99.90
1055;DHT22;516;51.482;7.120;2022-07-23T00:12:18;16.30;99.90
1055;DHT22;516;51.482;7.120;2022-07-23T00:14:44;16.20;99.90
1055;DHT22;516;51.482;7.120;2022-07-23T00:17:10;16.30;99.90
1055;DHT22;516;51.482;7.120;2022-07-23T00:19:35;16.20;99.90
1055;DHT22;516;51.482;7.120;2022-07-23T00:22:01;16.20;99.90
1055;DHT22;516;51.482;7.120;2022-07-23T00:24:27;16.20;99.90
1055;DHT22;516;51.482;7.120;2022-07-23T00:26:52;16.20;99.90
1055;DHT22;516;51.482;7.120;2022-07-23T00:29:18;16.20;99.90
1055;DHT22;516;51.482;7.120;2022-07-23T00:31:43;16.20;99.90
1055;DHT22;516;51.482;7.120;2022-07-23T00:34:09;16.10;99.90
1055;DHT22;516;51.482;7.120;2022-07-23T00:36:35;16.10;99.90
1055;DHT22;516;51.482;7.120;2022-07-23T00:39:00;16.20;99.90
1055;DHT22;516;51.482;7.120;2022-07-23T00:41:26;16.10;99.90
1055;DHT22;516;51.482;7.120;2022-07-23T00:43:52;16.10;99.90
1055;DHT22;516;51.482;7.120;2022-07-23T00:46:21;16.10;99.90
1055;DHT22;516;51.482;7.120;2022-07-23T00:48:47;16.10;99.90
1055;DHT22;516;51.482;7.120;2022-07-23T00:51:15;16.10;99.90
1055;DHT22;516;51.482;7.120;2022-07-23T00:53:42;16.00;99.90
1055;DHT22;516;51.482;7.120;2022-07-23T00:56:08;16.10;99.90
1055;DHT22;516;51.482;7.120;2022-07-23T00:58:35;16.00;99.90
1055;DHT22;516;51.482;7.120;2022-07-23T01:01:01;16.00;99.90
1055;DHT22;516;51.482;7.120;2022-07-23T01:03:26;16.00;99.90
1055;DHT22;516;51.482;7.120;2022-07-23T01:05:53;16.00;99.90
1055;DHT22;516;51.482;7.120;2022-07-23T01:08:19;16.00;99.90
1055;DHT22;516;51.482;7.120;2022-07-23T01:10:46;16.00;99.90
1055;DHT22;516;51.482;7.120;2022-07-23T01:13:13;15.90;99.90
1055;DHT22;516;51.482;7.120;2022-07-23T01:15:38;15.90;99.90
1055;DHT22;516;51.482;7.120;2022-07-23T01:18:06;15.90;99.90
1055;DHT22;516;51.482;7.120;2022-07-23T01:20:32;15.90;99.90
1055;DHT22;516;51.482;7.120;2022-07-23T01:22:58;15.90;99.90
1055;DHT22;516;51.482;7.120;2022-07-23T01:25:24;15.90;99.90
1055;DHT22;516;51.482;7.120;2022-07-23T01:27:52;15.90;99.90
1055;DHT22;516;51.482;7.120;2022-07-23T01:30:18;15.90;99.90
1055;DHT22;516;51.482;7.120;2022-07-23T01:32:45;16.00;99.90
1055;DHT22;516;51.482;7.120;2022-07-23T01:35:11;16.00;99.90
1055;DHT22;516;51.482;7.120;2022-07-23T01:37:37;16.00;99.90
1055;DHT22;516;51.482;7.120;2022-07-23T01:40:04;16.00;99.90
1055;DHT22;516;51.482;7.120;2022-07-23T01:42:30;15.90;99.90
1055;DHT22;516;51.482;7.120;2022-07-23T01:44:56;16.00;99.90
1055;DHT22;516;51.482;7.120;2022-07-23T01:47:21;15.90;99.90
1055;DHT22;516;51.482;7.120;2022-07-23T01:49:47;15.90;99.90
1055;DHT22;516;51.482;7.120;2022-07-23T01:52:13;15.90;99.90
1055;DHT22;516;51.482;7.120;2022-07-23T01:54:39;15.90;99.90
1055;DHT22;516;51.482;7.120;2022-07-23T01:57:06;15.80;99.90
1055;DHT22;516;51.482;7.120;2022-07-23T01:59:32;15.80;99.90
1055;DHT22;516;51.482;7.120;2022-07-23T02:01:57;15.90;99.90
1055;DHT22;516;51.482;7.120;2022-07-23T02:04:24;15.90;99.90
1055;DHT22;516;51.482;7.120;2022-07-23T02:06:50;15.90;99.90
1055;DHT22;516;51.482;7.120;2022-07-23T02:09:17;15.90;99.90
1055;DHT22;516;51.482;7.120;2022-07-23T02:11:43;15.90;99.90
1055;DHT22;516;51.482;7.120;2022-07-23T02:14:08;15.90;99.90
1055;DHT22;516;51.482;7.120;2022-07-23T02:16:34;15.90;99.90
1055;DHT22;516;51.482;7.120;2022-07-23T02:19:00;16.00;99.90
1055;DHT22;516;51.482;7.120;2022-07-23T02:21:25;15.90;99.90
1055;DHT22;516;51.482;7.120;2022-07-23T02:23:51;15.90;99.90
1055;DHT22;516;51.482;7.120;2022-07-23T02:26:17;15.90;99.90
1055;DHT22;516;51.482;7.120;2022-07-23T02:28:43;15.90;99.90
1055;DHT22;516;51.482;7.120;2022-07-23T02:31:08;15.80;99.90
1055;DHT22;516;51.482;7.120;2022-07-23T02:33:34;15.80;99.90
1055;DHT22;516;51.482;7.120;2022-07-23T02:36:00;15.80;99.90
1055;DHT22;516;51.482;7.120;2022-07-23T02:38:26;15.80;99.90
1055;DHT22;516;51.482;7.120;2022-07-23T02:40:52;15.80;99.90
1055;DHT22;516;51.482;7.120;2022-07-23T02:43:18;15.70;99.90
1055;DHT22;516;51.482;7.120;2022-07-23T02:45:43;15.60;99.90
1055;DHT22;516;51.482;7.120;2022-07-23T02:48:09;15.60;99.90
1055;DHT22;516;51.482;7.120;2022-07-23T02:50:38;15.60;99.90
1055;DHT22;516;51.482;7.120;2022-07-23T02:53:03;15.50;99.90
1055;DHT22;516;51.482;7.120;2022-07-23T02:55:29;15.50;99.90
1055;DHT22;516;51.482;7.120;2022-07-23T02:57:55;15.50;99.90
1055;DHT22;516;51.482;7.120;2022-07-23T03:00:21;15.40;99.90
1055;DHT22;516;51.482;7.120;2022-07-23T03:02:46;15.40;99.90
1055;DHT22;516;51.482;7.120;2022-07-23T03:05:12;15.40;99.90
1055;DHT22;516;51.482;7.120;2022-07-23T03:07:38;15.40;99.90
1055;DHT22;516;51.482;7.120;2022-07-23T03:10:03;15.40;99.90
1055;DHT22;516;51.482;7.120;2022-07-23T03:12:29;15.40;99.90
1055;DHT22;516;51.482;7.120;2022-07-23T03:14:55;15.40;99.90
1055;DHT22;516;51.482;7.120;2022-07-23T03:17:20;15.40;99.90
1055;DHT22;516;51.482;7.120;2022-07-23T03:19:46;15.40;99.90
1055;DHT22;516;51.482;7.120;2022-07-23T03:22:11;15.30;99.90
1055;DHT22;516;51.482;7.120;2022-07-23T03:24:37;15.30;99.90
1055;DHT22;516;51.482;7.120;2022-07-23T03:27:25;15.20;99.90
1055;DHT22;516;51.482;7.120;2022-07-23T03:29:53;15.10;99.90
1055;DHT22;516;51.482;7.120;2022-07-23T03:32:19;15.00;99.90
1055;DHT22;516;51.482;7.120;2022-07-23T03:34:45;15.00;99.90
1055;DHT22;516;51.482;7.120;2022-07-23T03:37:11;14.90;99.90
1055;DHT22;516;51.482;7.120;2022-07-23T03:39:37;14.90;99.90
1055;DHT22;516;51.482;7.120;2022-07-23T03:42:03;14.90;99.90
1055;DHT22;516;51.482;7.120;2022-07-23T03:44:29;14.90;99.90
1055;DHT22;516;51.482;7.120;2022-07-23T03:46:54;14.80;99.90
1055;DHT22;516;51.482;7.120;2022-07-23T03:49:20;14.70;99.90
1055;DHT22;516;51.482;7.120;2022-07-23T03:51:46;14.70;99.90
1055;DHT22;516;51.482;7.120;2022-07-23T03:54:12;14.70;99.90
1055;DHT22;516;51.482;7.120;2022-07-23T03:56:37;14.70;99.90
1055;DHT22;516;51.482;7.120;2022-07-23T03:59:03;14.70;99.90
1055;DHT22;516;51.482;7.120;2022-07-23T04:01:29;14.60;99.90
1055;DHT22;516;51.482;7.120;2022-07-23T04:03:55;14.60;99.90
1055;DHT22;516;51.482;7.120;2022-07-23T04:06:21;14.50;99.90
1055;DHT22;516;51.482;7.120;2022-07-23T04:08:46;14.50;99.90
1055;DHT22;516;51.482;7.120;2022-07-23T04:11:12;14.60;99.90
1055;DHT22;516;51.482;7.120;2022-07-23T04:13:38;14.70;99.90
1055;DHT22;516;51.482;7.120;2022-07-23T04:16:03;14.70;99.90
1055;DHT22;516;51.482;7.120;2022-07-23T04:18:29;14.70;99.90
1055;DHT22;516;51.482;7.120;2022-07-23T04:20:55;14.70;99.90
1055;DHT22;516;51.482;7.120;2022-07-23T04:23:21;14.70;99.90
1055;DHT22;516;51.482;7.120;2022-07-23T04:25:47;14.60;99.90
1055;DHT22;516;51.482;7.120;2022-07-23T04:28:12;14.70;99.90
1055;DHT22;516;51.482;7.120;2022-07-23T04:30:38;14.80;99.90
1055;DHT22;516;51.482;7.120;2022-07-23T04:33:04;14.80;99.90
1055;DHT22;516;51.482;7.120;2022-07-23T04:35:33;14.80;99.90
1055;DHT22;516;51.482;7.120;2022-07-23T04:37:59;14.90;99.90
1055;DHT22;516;51.482;7.120;2022-07-23T04:40:26;14.90;99.90
1055;DHT22;516;51.482;7.120;2022-07-23T04:42:51;15.00;99.90
1055;DHT22;516;51.482;7.120;2022-07-23T04:45:17;15.00;99.90
1055;DHT22;516;51.482;7.120;2022-07-23T04:47:43;15.00;99.90
1055;DHT22;516;51.482;7.120;2022-07-23T04:50:09;15.10;99.90
1055;DHT22;516;51.482;7.120;2022-07-23T04:52:34;15.20;99.90
1055;DHT22;516;51.482;7.120;2022-07-23T04:55:00;15.30;99.90
1055;DHT22;516;51.482;7.120;2022-07-23T04:57:26;15.50;99.90
1055;DHT22;516;51.482;7.120;2022-07-23T04:59:52;15.60;99.90
1055;DHT22;516;51.482;7.120;2022-07-23T05:02:17;15.60;99.90
1055;DHT22;516;51.482;7.120;2022-07-23T05:04:43;15.50;99.90
1055;DHT22;516;51.482;7.120;2022-07-23T05:07:09;15.60;99.90
1055;DHT22;516;51.482;7.120;2022-07-23T05:09:34;15.60;99.90
1055;DHT22;516;51.482;7.120;2022-07-23T05:12:00;15.70;99.90
1055;DHT22;516;51.482;7.120;2022-07-23T05:14:26;15.90;99.90
1055;DHT22;516;51.482;7.120;2022-07-23T05:16:52;16.10;99.90
1055;DHT22;516;51.482;7.120;2022-07-23T05:19:18;16.10;99.90
1055;DHT22;516;51.482;7.120;2022-07-23T05:21:43;16.20;99.90
1055;DHT22;516;51.482;7.120;2022-07-23T05:24:09;16.30;99.90
1055;DHT22;516;51.482;7.120;2022-07-23T05:26:35;16.40;99.90
1055;DHT22;516;51.482;7.120;2022-07-23T05:29:00;16.50;99.90
1055;DHT22;516;51.482;7.120;2022-07-23T05:31:26;17.10;99.90
1055;DHT22;516;51.482;7.120;2022-07-23T05:33:52;17.40;99.90
1055;DHT22;516;51.482;7.120;2022-07-23T05:36:17;17.60;99.90
1055;DHT22;516;51.482;7.120;2022-07-23T05:38:43;17.90;99.90
1055;DHT22;516;51.482;7.120;2022-07-23T05:41:09;18.10;99.90
1055;DHT22;516;51.482;7.120;2022-07-23T05:43:34;18.30;99.90
1055;DHT22;516;51.482;7.120;2022-07-23T05:46:00;18.30;99.90
1055;DHT22;516;51.482;7.120;2022-07-23T05:48:26;18.30;99.90
1055;DHT22;516;51.482;7.120;2022-07-23T05:50:51;18.30;99.90
1055;DHT22;516;51.482;7.120;2022-07-23T05:53:17;18.50;99.90
1055;DHT22;516;51.482;7.120;2022-07-23T05:55:43;18.40;99.90
1055;DHT22;516;51.482;7.120;2022-07-23T05:58:09;18.60;99.90
1055;DHT22;516;51.482;7.120;2022-07-23T06:00:34;18.70;99.90
1055;DHT22;516;51.482;7.120;2022-07-23T06:03:00;19.10;99.90
1055;DHT22;516;51.482;7.120;2022-07-23T06:05:26;18.90;99.90
1055;DHT22;516;51.482;7.120;2022-07-23T06:07:52;18.90;99.90
1055;DHT22;516;51.482;7.120;2022-07-23T06:10:18;18.80;99.90
1055;DHT22;516;51.482;7.120;2022-07-23T06:12:44;19.00;99.90
1055;DHT22;516;51.482;7.120;2022-07-23T06:15:10;18.30;99.90
1055;DHT22;516;51.482;7.120;2022-07-23T06:17:37;19.00;99.90
1055;DHT22;516;51.482;7.120;2022-07-23T06:20:06;19.70;99.90
1055;DHT22;516;51.482;7.120;2022-07-23T06:22:31;19.00;99.90
1055;DHT22;516;51.482;7.120;2022-07-23T06:24:57;19.10;99.90
1055;DHT22;516;51.482;7.120;2022-07-23T06:27:23;19.40;99.90
1055;DHT22;516;51.482;7.120;2022-07-23T06:29:48;19.00;99.90
1055;DHT22;516;51.482;7.120;2022-07-23T06:32:14;19.90;99.90
1055;DHT22;516;51.482;7.120;2022-07-23T06:34:40;20.30;99.90
1055;DHT22;516;51.482;7.120;2022-07-23T06:37:05;20.00;99.90
1055;DHT22;516;51.482;7.120;2022-07-23T06:39:31;20.20;99.90
1055;DHT22;516;51.482;7.120;2022-07-23T06:41:57;20.10;99.90
1055;DHT22;516;51.482;7.120;2022-07-23T06:44:22;19.90;99.90
1055;DHT22;516;51.482;7.120;2022-07-23T06:46:48;20.20;99.90
1055;DHT22;516;51.482;7.120;2022-07-23T06:49:14;19.50;99.90
1055;DHT22;516;51.482;7.120;2022-07-23T06:51:39;19.50;99.90
1055;DHT22;516;51.482;7.120;2022-07-23T06:54:05;19.40;99.90
1055;DHT22;516;51.482;7.120;2022-07-23T06:56:31;19.10;99.90
1055;DHT22;516;51.482;7.120;2022-07-23T06:58:56;19.40;99.90
1055;DHT22;516;51.482;7.120;2022-07-23T07:01:22;19.60;99.90
1055;DHT22;516;51.482;7.120;2022-07-23T07:03:48;19.70;99.90
1055;DHT22;516;51.482;7.120;2022-07-23T07:06:14;19.60;99.90
1055;DHT22;516;51.482;7.120;2022-07-23T07:08:40;19.70;99.90
1055;DHT22;516;51.482;7.120;2022-07-23T07:11:08;19.20;99.90
1055;DHT22;516;51.482;7.120;2022-07-23T07:13:34;19.90;99.90
1055;DHT22;516;51.482;7.120;2022-07-23T07:15:59;20.70;99.90
1055;DHT22;516;51.482;7.120;2022-07-23T07:18:26;20.50;99.90
1055;DHT22;516;51.482;7.120;2022-07-23T07:20:51;20.20;99.90
1055;DHT22;516;51.482;7.120;2022-07-23T07:23:17;20.30;99.90
1055;DHT22;516;51.482;7.120;2022-07-23T07:25:43;20.10;99.90
1055;DHT22;516;51.482;7.120;2022-07-23T07:28:08;19.60;99.90
1055;DHT22;516;51.482;7.120;2022-07-23T07:30:34;19.40;99.90
1055;DHT22;516;51.482;7.120;2022-07-23T07:33:00;19.60;99.90
1055;DHT22;516;51.482;7.120;2022-07-23T07:35:25;19.80;99.90
1055;DHT22;516;51.482;7.120;2022-07-23T07:37:51;19.80;99.90
1055;DHT22;516;51.482;7.120;2022-07-23T07:40:17;19.90;99.90
1055;DHT22;516;51.482;7.120;2022-07-23T07:42:47;20.00;99.90
1055;DHT22;516;51.482;7.120;2022-07-23T07:45:13;20.70;99.90
1055;DHT22;516;51.482;7.120;2022-07-23T07:47:39;20.80;99.90
1055;DHT22;516;51.482;7.120;2022-07-23T07:50:05;20.20;99.90
1055;DHT22;516;51.482;7.120;2022-07-23T07:52:30;19.90;99.90
1055;DHT22;516;51.482;7.120;2022-07-23T07:54:56;19.90;99.90
1055;DHT22;516;51.482;7.120;2022-07-23T07:57:21;19.70;99.90
1055;DHT22;516;51.482;7.120;2022-07-23T07:59:47;19.90;99.90
1055;DHT22;516;51.482;7.120;2022-07-23T08:02:13;20.70;99.90
1055;DHT22;516;51.482;7.120;2022-07-23T08:04:38;20.90;99.90
1055;DHT22;516;51.482;7.120;2022-07-23T08:07:04;22.00;99.90
1055;DHT22;516;51.482;7.120;2022-07-23T08:09:30;21.80;99.90
1055;DHT22;516;51.482;7.120;2022-07-23T08:11:55;21.60;99.90
1055;DHT22;516;51.482;7.120;2022-07-23T08:14:21;21.00;99.90
1055;DHT22;516;51.482;7.120;2022-07-23T08:16:46;21.90;99.90
1055;DHT22;516;51.482;7.120;2022-07-23T08:19:12;21.20;99.90
1055;DHT22;516;51.482;7.120;2022-07-23T08:21:38;21.70;99.90
1055;DHT22;516;51.482;7.120;2022-07-23T08:24:03;21.80;99.90
1055;DHT22;516;51.482;7.120;2022-07-23T08:26:29;22.20;99.90
1055;DHT22;516;51.482;7.120;2022-07-23T08:28:55;21.70;99.90
1055;DHT22;516;51.482;7.120;2022-07-23T08:31:20;21.30;99.90
1055;DHT22;516;51.482;7.120;2022-07-23T08:33:46;21.30;99.90
1055;DHT22;516;51.482;7.120;2022-07-23T08:36:12;21.80;99.90
1055;DHT22;516;51.482;7.120;2022-07-23T08:38:37;21.70;99.90
1055;DHT22;516;51.482;7.120;2022-07-23T08:41:03;22.10;98.10
1055;DHT22;516;51.482;7.120;2022-07-23T08:43:31;22.90;99.90
1055;DHT22;516;51.482;7.120;2022-07-23T08:45:59;23.20;83.50
1055;DHT22;516;51.482;7.120;2022-07-23T08:48:31;23.50;85.90
1055;DHT22;516;51.482;7.120;2022-07-23T08:50:59;23.60;87.70
1055;DHT22;516;51.482;7.120;2022-07-23T08:53:27;23.70;69.10
1055;DHT22;516;51.482;7.120;2022-07-23T08:55:55;24.10;69.40
1055;DHT22;516;51.482;7.120;2022-07-23T08:58:22;23.50;58.40
1055;DHT22;516;51.482;7.120;2022-07-23T09:00:49;24.30;63.80
1055;DHT22;516;51.482;7.120;2022-07-23T09:03:25;24.10;59.20
1055;DHT22;516;51.482;7.120;2022-07-23T09:05:52;24.10;43.70
1055;DHT22;516;51.482;7.120;2022-07-23T09:08:21;23.50;40.30
1055;DHT22;516;51.482;7.120;2022-07-23T09:10:59;22.00;57.50
1055;DHT22;516;51.482;7.120;2022-07-23T09:16:31;22.60;51.10
1055;DHT22;516;51.482;7.120;2022-07-23T09:18:59;22.60;51.40
1055;DHT22;516;51.482;7.120;2022-07-23T09:21:30;23.50;45.10
1055;DHT22;516;51.482;7.120;2022-07-23T09:24:04;22.90;50.20
1055;DHT22;516;51.482;7.120;2022-07-23T09:26:34;23.30;43.20
1055;DHT22;516;51.482;7.120;2022-07-23T09:29:21;24.20;43.00
1055;DHT22;516;51.482;7.120;2022-07-23T09:34:26;22.90;37.10
1055;DHT22;516;51.482;7.120;2022-07-23T09:36:55;23.00;37.90
1055;DHT22;516;51.482;7.120;2022-07-23T09:39:31;23.60;42.10
1055;DHT22;516;51.482;7.120;2022-07-23T09:41:58;24.40;37.20
1055;DHT22;516;51.482;7.120;2022-07-23T09:44:24;23.80;28.90
1055;DHT22;516;51.482;7.120;2022-07-23T09:46:52;24.70;35.90
1055;DHT22;516;51.482;7.120;2022-07-23T09:49:23;24.70;33.00
1055;DHT22;516;51.482;7.120;2022-07-23T09:51:56;24.60;27.90
1055;DHT22;516;51.482;7.120;2022-07-23T09:57:12;25.00;32.40
1055;DHT22;516;51.482;7.120;2022-07-23T09:59:44;24.90;24.40
1055;DHT22;516;51.482;7.120;2022-07-23T10:02:12;24.90;21.10
1055;DHT22;516;51.482;7.120;2022-07-23T10:04:38;23.70;22.30
1055;DHT22;516;51.482;7.120;2022-07-23T10:07:06;23.20;24.40
1055;DHT22;516;51.482;7.120;2022-07-23T10:09:35;24.20;26.30
1055;DHT22;516;51.482;7.120;2022-07-23T10:12:10;23.80;23.40
1055;DHT22;516;51.482;7.120;2022-07-23T10:14:49;23.60;24.40
1055;DHT22;516;51.482;7.120;2022-07-23T10:17:16;25.10;21.90
1055;DHT22;516;51.482;7.120;2022-07-23T10:19:43;25.00;21.70
1055;DHT22;516;51.482;7.120;2022-07-23T10:22:14;23.60;21.70
1055;DHT22;516;51.482;7.120;2022-07-23T10:30:05;24.70;20.40
1055;DHT22;516;51.482;7.120;2022-07-23T10:32:53;24.50;22.70
1055;DHT22;516;51.482;7.120;2022-07-23T10:37:57;24.80;19.20
1055;DHT22;516;51.482;7.120;2022-07-23T10:40:27;25.20;17.60
1055;DHT22;516;51.482;7.120;2022-07-23T10:42:58;24.10;18.00
1055;DHT22;516;51.482;7.120;2022-07-23T10:45:26;23.90;19.20
1055;DHT22;516;51.482;7.120;2022-07-23T10:47:52;24.60;21.50
1055;DHT22;516;51.482;7.120;2022-07-23T10:57:58;26.40;13.50
1055;DHT22;516;51.482;7.120;2022-07-23T11:00:26;25.20;12.90
1055;DHT22;516;51.482;7.120;2022-07-23T11:02:57;25.70;11.60
1055;DHT22;516;51.482;7.120;2022-07-23T11:13:38;25.30;9.80
1055;DHT22;516;51.482;7.120;2022-07-23T11:16:06;25.20;11.10
1055;DHT22;516;51.482;7.120;2022-07-23T11:18:55;24.00;10.90
1055;DHT22;516;51.482;7.120;2022-07-23T11:24:07;26.10;8.00
1055;DHT22;516;51.482;7.120;2022-07-23T11:26:49;25.90;8.60
1055;DHT22;516;51.482;7.120;2022-07-23T11:38:45;25.30;8.10
1055;DHT22;516;51.482;7.120;2022-07-23T11:44:29;27.20;8.50
1055;DHT22;516;51.482;7.120;2022-07-23T11:50:16;26.10;6.40
1055;DHT22;516;51.482;7.120;2022-07-23T11:56:08;26.00;3.60
1055;DHT22;516;51.482;7.120;2022-07-23T12:02:05;26.70;4.50
1055;DHT22;516;51.482;7.120;2022-07-23T12:07:56;26.90;2.70
1055;DHT22;516;51.482;7.120;2022-07-23T12:13:43;26.00;2.90
1055;DHT22;516;51.482;7.120;2022-07-23T12:20:02;27.00;8.80
1055;DHT22;516;51.482;7.120;2022-07-23T12:25:53;28.40;3.80
1055;DHT22;516;51.482;7.120;2022-07-23T12:31:41;27.50;4.20
1055;DHT22;516;51.482;7.120;2022-07-23T12:50:48;26.10;1.00
1055;DHT22;516;51.482;7.120;2022-07-23T12:56:40;25.80;3.30
1055;DHT22;516;51.482;7.120;2022-07-23T13:09:14;27.30;1.00
1055;DHT22;516;51.482;7.120;2022-07-23T13:15:02;27.70;1.00
1055;DHT22;516;51.482;7.120;2022-07-23T13:20:51;27.60;1.00
1055;DHT22;516;51.482;7.120;2022-07-23T13:26:39;28.80;1.00
1055;DHT22;516;51.482;7.120;2022-07-23T13:36:29;27.00;1.00
1055;DHT22;516;51.482;7.120;2022-07-23T13:42:16;28.60;1.00
1055;DHT22;516;51.482;7.120;2022-07-23T13:48:05;28.90;1.00
1055;DHT22;516;51.482;7.120;2022-07-23T13:53:53;29.10;1.00
1055;DHT22;516;51.482;7.120;2022-07-23T13:59:42;28.50;1.00
1055;DHT22;516;51.482;7.120;2022-07-23T14:05:30;27.20;1.00
1055;DHT22;516;51.482;7.120;2022-07-23T14:11:18;25.80;1.00
1055;DHT22;516;51.482;7.120;2022-07-23T14:17:06;26.70;1.00
1055;DHT22;516;51.482;7.120;2022-07-23T14:22:54;28.00;1.00
1055;DHT22;516;51.482;7.120;2022-07-23T14:28:43;26.60;1.00
1055;DHT22;516;51.482;7.120;2022-07-23T14:34:39;27.90;1.00
1055;DHT22;516;51.482;7.120;2022-07-23T14:40:27;25.90;1.00
1055;DHT22;516;51.482;7.120;2022-07-23T14:46:14;26.60;1.00
1055;DHT22;516;51.482;7.120;2022-07-23T14:52:03;28.30;1.00
1055;DHT22;516;51.482;7.120;2022-07-23T14:57:50;27.90;1.00
1055;DHT22;516;51.482;7.120;2022-07-23T15:03:38;28.50;1.00
1055;DHT22;516;51.482;7.120;2022-07-23T15:09:26;28.60;1.00
1055;DHT22;516;51.482;7.120;2022-07-23T15:15:13;27.40;1.00
1055;DHT22;516;51.482;7.120;2022-07-23T15:21:02;28.90;1.00
1055;DHT22;516;51.482;7.120;2022-07-23T15:26:50;28.10;1.00
1055;DHT22;516;51.482;7.120;2022-07-23T15:36:31;27.40;1.00
1055;DHT22;516;51.482;7.120;2022-07-23T15:42:19;27.10;1.00
1055;DHT22;516;51.482;7.120;2022-07-23T15:48:07;27.80;1.00
1055;DHT22;516;51.482;7.120;2022-07-23T15:53:55;27.30;1.00
1055;DHT22;516;51.482;7.120;2022-07-23T15:59:42;28.40;1.00
1055;DHT22;516;51.482;7.120;2022-07-23T16:05:31;29.30;1.00
1055;DHT22;516;51.482;7.120;2022-07-23T16:11:21;27.90;1.00
1055;DHT22;516;51.482;7.120;2022-07-23T16:17:09;28.70;1.00
1055;DHT22;516;51.482;7.120;2022-07-23T16:22:57;27.30;1.00
1055;DHT22;516;51.482;7.120;2022-07-23T16:28:45;28.00;1.00
1055;DHT22;516;51.482;7.120;2022-07-23T16:34:33;27.70;1.00
1055;DHT22;516;51.482;7.120;2022-07-23T16:40:21;27.20;1.00
1055;DHT22;516;51.482;7.120;2022-07-23T16:46:08;26.70;1.00
1055;DHT22;516;51.482;7.120;2022-07-23T17:08:47;27.40;1.00
1055;DHT22;516;51.482;7.120;2022-07-23T17:14:35;29.30;1.00
1055;DHT22;516;51.482;7.120;2022-07-23T17:20:23;28.30;1.00
1055;DHT22;516;51.482;7.120;2022-07-23T17:26:12;27.60;1.00
1055;DHT22;516;51.482;7.120;2022-07-23T17:32:01;26.60;1.00
1055;DHT22;516;51.482;7.120;2022-07-23T17:41:17;25.60;1.00
1055;DHT22;516;51.482;7.120;2022-07-23T17:46:46;25.40;1.00
1055;DHT22;516;51.482;7.120;2022-07-23T17:59:08;25.00;1.00
1055;DHT22;516;51.482;7.120;2022-07-23T18:04:56;24.50;1.00
1055;DHT22;516;51.482;7.120;2022-07-23T18:10:44;24.50;1.60
1055;DHT22;516;51.482;7.120;2022-07-23T18:16:32;24.30;3.80
1055;DHT22;516;51.482;7.120;2022-07-23T18:22:20;24.00;5.30
1055;DHT22;516;51.482;7.120;2022-07-23T18:28:08;23.70;6.10
1055;DHT22;516;51.482;7.120;2022-07-23T18:33:55;23.60;6.50
1055;DHT22;516;51.482;7.120;2022-07-23T18:36:41;23.50;9.10
1055;DHT22;516;51.482;7.120;2022-07-23T18:39:07;23.50;6.70
1055;DHT22;516;51.482;7.120;2022-07-23T18:44:55;23.40;8.50
1055;DHT22;516;51.482;7.120;2022-07-23T18:50:44;23.20;8.20
1055;DHT22;516;51.482;7.120;2022-07-23T18:56:32;23.00;9.90
1055;DHT22;516;51.482;7.120;2022-07-23T19:02:20;22.90;11.80
1055;DHT22;516;51.482;7.120;2022-07-23T19:08:08;22.60;16.20
1055;DHT22;516;51.482;7.120;2022-07-23T19:13:56;22.30;19.20
1055;DHT22;516;51.482;7.120;2022-07-23T19:19:44;22.10;26.90
1055;DHT22;516;51.482;7.120;2022-07-23T19:25:32;21.90;33.70
1055;DHT22;516;51.482;7.120;2022-07-23T19:31:20;21.40;49.60
1055;DHT22;516;51.482;7.120;2022-07-23T19:47:05;20.70;76.50
1055;DHT22;516;51.482;7.120;2022-07-23T19:52:53;20.50;93.00
1055;DHT22;516;51.482;7.120;2022-07-23T19:58:41;20.40;99.90
1055;DHT22;516;51.482;7.120;2022-07-23T20:04:29;20.30;99.10
1055;DHT22;516;51.482;7.120;2022-07-23T20:06:55;20.20;99.90
1055;DHT22;516;51.482;7.120;2022-07-23T20:09:23;20.10;99.90
1055;DHT22;516;51.482;7.120;2022-07-23T20:11:49;20.00;99.90
1055;DHT22;516;51.482;7.120;2022-07-23T20:14:15;19.90;99.90
1055;DHT22;516;51.482;7.120;2022-07-23T20:16:40;19.90;99.90
1055;DHT22;516;51.482;7.120;2022-07-23T20:19:06;19.80;99.90
1055;DHT22;516;51.482;7.120;2022-07-23T20:21:32;19.70;99.90
1055;DHT22;516;51.482;7.120;2022-07-23T20:23:58;19.60;99.90
1055;DHT22;516;51.482;7.120;2022-07-23T20:26:24;19.60;99.90
1055;DHT22;516;51.482;7.120;2022-07-23T20:28:49;19.60;99.90
1055;DHT22;516;51.482;7.120;2022-07-23T20:31:15;19.60;99.90
1055;DHT22;516;51.482;7.120;2022-07-23T20:33:41;19.60;99.90
1055;DHT22;516;51.482;7.120;2022-07-23T20:36:07;19.50;99.90
1055;DHT22;516;51.482;7.120;2022-07-23T20:38:33;19.40;99.90
1055;DHT22;516;51.482;7.120;2022-07-23T20:40:58;19.40;99.90
1055;DHT22;516;51.482;7.120;2022-07-23T20:43:25;19.30;99.90
1055;DHT22;516;51.482;7.120;2022-07-23T20:45:51;19.30;99.90
1055;DHT22;516;51.482;7.120;2022-07-23T20:48:16;19.30;99.90
1055;DHT22;516;51.482;7.120;2022-07-23T20:50:42;19.30;99.90
1055;DHT22;516;51.482;7.120;2022-07-23T20:53:09;19.20;99.90
1055;DHT22;516;51.482;7.120;2022-07-23T20:55:35;19.10;99.90
1055;DHT22;516;51.482;7.120;2022-07-23T20:58:02;19.00;99.90
1055;DHT22;516;51.482;7.120;2022-07-23T21:00:27;19.00;99.90
1055;DHT22;516;51.482;7.120;2022-07-23T21:02:53;19.00;99.90
1055;DHT22;516;51.482;7.120;2022-07-23T21:05:19;18.90;99.90
1055;DHT22;516;51.482;7.120;2022-07-23T21:07:45;18.80;99.90
1055;DHT22;516;51.482;7.120;2022-07-23T21:10:11;18.80;99.90
1055;DHT22;516;51.482;7.120;2022-07-23T21:12:37;18.90;99.90
1055;DHT22;516;51.482;7.120;2022-07-23T21:15:04;18.70;99.90
1055;DHT22;516;51.482;7.120;2022-07-23T21:17:31;18.60;99.90
1055;DHT22;516;51.482;7.120;2022-07-23T21:19:57;18.60;99.90
1055;DHT22;516;51.482;7.120;2022-07-23T21:22:23;18.60;99.90
1055;DHT22;516;51.482;7.120;2022-07-23T21:24:48;18.40;99.90
1055;DHT22;516;51.482;7.120;2022-07-23T21:27:14;18.50;99.90
1055;DHT22;516;51.482;7.120;2022-07-23T21:29:41;18.50;99.90
1055;DHT22;516;51.482;7.120;2022-07-23T21:32:09;18.50;99.90
1055;DHT22;516;51.482;7.120;2022-07-23T21:34:35;18.40;99.90
1055;DHT22;516;51.482;7.120;2022-07-23T21:37:01;18.40;99.90
1055;DHT22;516;51.482;7.120;2022-07-23T21:39:27;18.40;99.90
1055;DHT22;516;51.482;7.120;2022-07-23T21:41:52;18.20;99.90
1055;DHT22;516;51.482;7.120;2022-07-23T21:44:18;18.20;99.90
1055;DHT22;516;51.482;7.120;2022-07-23T21:46:44;18.20;99.90
1055;DHT22;516;51.482;7.120;2022-07-23T21:49:10;18.10;99.90
1055;DHT22;516;51.482;7.120;2022-07-23T21:51:36;18.00;99.90
1055;DHT22;516;51.482;7.120;2022-07-23T21:54:02;18.10;99.90
1055;DHT22;516;51.482;7.120;2022-07-23T21:56:28;18.10;99.90
1055;DHT22;516;51.482;7.120;2022-07-23T21:58:54;18.20;99.90
1055;DHT22;516;51.482;7.120;2022-07-23T22:01:20;18.10;99.90
1055;DHT22;516;51.482;7.120;2022-07-23T22:03:46;18.20;99.90
1055;DHT22;516;51.482;7.120;2022-07-23T22:06:11;18.10;99.90
1055;DHT22;516;51.482;7.120;2022-07-23T22:08:37;18.10;99.90
1055;DHT22;516;51.482;7.120;2022-07-23T22:11:03;18.00;99.90
1055;DHT22;516;51.482;7.120;2022-07-23T22:13:28;18.00;99.90
1055;DHT22;516;51.482;7.120;2022-07-23T22:15:54;17.90;99.90
1055;DHT22;516;51.482;7.120;2022-07-23T22:18:20;17.90;99.90